createdAt,value
2022-11-27T00:00:07.668Z, 36.91
2022-11-27T00:01:07.683Z, 36.88
2022-11-27T00:02:07.717Z, 36.85
2022-11-27T00:03:07.883Z, 36.88
2022-11-27T00:04:07.771Z, 36.86
2022-11-27T00:05:07.678Z, 36.81
2022-11-27T00:06:07.676Z, 36.78
2022-11-27T00:07:07.741Z, 36.71
2022-11-27T00:08:07.723Z, 36.72
2022-11-27T00:09:07.713Z, 36.67
2022-11-27T00:10:07.721Z, 36.64
2022-11-27T00:11:07.734Z, 36.61
2022-11-27T00:12:07.753Z, 36.64
2022-11-27T00:13:07.772Z, 36.61
2022-11-27T00:14:07.766Z, 36.64
2022-11-27T00:15:07.856Z, 36.62
2022-11-27T00:16:07.979Z, 36.62
2022-11-27T00:17:07.867Z, 36.62
2022-11-27T00:18:07.851Z, 36.57
2022-11-27T00:19:07.863Z, 36.54
2022-11-27T00:20:07.858Z, 36.55
2022-11-27T00:21:07.866Z, 36.57
2022-11-27T00:22:07.905Z, 36.54
2022-11-27T00:23:07.904Z, 36.48
2022-11-27T00:24:07.918Z, 36.45
2022-11-27T00:25:07.928Z, 36.41
2022-11-27T00:26:07.918Z, 36.37
2022-11-27T00:27:07.958Z, 36.37
2022-11-27T00:28:07.942Z, 36.40
2022-11-27T00:29:07.948Z, 36.40
2022-11-27T00:30:07.975Z, 36.39
2022-11-27T00:31:07.999Z, 36.37
2022-11-27T00:32:08.032Z, 36.34
2022-11-27T00:33:08.001Z, 36.31
2022-11-27T00:34:08.013Z, 36.34
2022-11-27T00:35:08.036Z, 36.26
2022-11-27T00:36:08.045Z, 36.25
2022-11-27T00:37:08.045Z, 36.23
2022-11-27T00:38:08.043Z, 36.25
2022-11-27T00:39:08.073Z, 36.22
2022-11-27T00:40:08.106Z, 36.23
2022-11-27T00:41:08.182Z, 36.19
2022-11-27T00:42:08.162Z, 36.19
2022-11-27T00:43:08.151Z, 36.18
2022-11-27T00:44:08.146Z, 36.12
2022-11-27T00:45:08.206Z, 36.12
2022-11-27T00:46:08.263Z, 36.08
2022-11-27T00:47:08.319Z, 36.04
2022-11-27T00:48:08.245Z, 36.05
2022-11-27T00:49:08.270Z, 36.07
2022-11-27T00:50:08.259Z, 36.08
2022-11-27T00:51:08.262Z, 36.08
2022-11-27T00:52:08.255Z, 36.07
2022-11-27T00:53:08.358Z, 36.02
2022-11-27T00:54:08.331Z, 35.99
2022-11-27T00:55:08.333Z, 35.99
2022-11-27T00:56:08.334Z, 36.01
2022-11-27T00:57:08.327Z, 36.00
2022-11-27T00:58:08.330Z, 36.01
2022-11-27T00:59:08.328Z, 36.02
2022-11-27T01:00:08.419Z, 36.02
2022-11-27T01:01:08.390Z, 36.00
2022-11-27T01:02:08.488Z, 35.91
2022-11-27T01:03:08.443Z, 35.93
2022-11-27T01:04:08.378Z, 35.89
2022-11-27T01:05:08.480Z, 35.91
2022-11-27T01:06:08.475Z, 35.87
2022-11-27T01:07:08.498Z, 35.83
2022-11-27T01:08:08.467Z, 35.82
2022-11-27T01:09:08.481Z, 35.81
2022-11-27T01:10:08.486Z, 35.82
2022-11-27T01:11:08.478Z, 35.79
2022-11-27T01:12:08.561Z, 35.78
2022-11-27T01:13:08.592Z, 35.77
2022-11-27T01:14:08.521Z, 35.75
2022-11-27T01:15:08.588Z, 35.76
2022-11-27T01:16:08.629Z, 35.76
2022-11-27T01:17:08.596Z, 35.67
2022-11-27T01:18:08.612Z, 35.61
2022-11-27T01:19:08.615Z, 35.64
2022-11-27T01:20:08.603Z, 35.63
2022-11-27T01:21:08.602Z, 35.60
2022-11-27T01:22:08.596Z, 35.61
2022-11-27T01:23:08.614Z, 35.62
2022-11-27T01:24:08.628Z, 35.59
2022-11-27T01:25:08.606Z, 35.54
2022-11-27T01:26:08.693Z, 35.49
2022-11-27T01:27:08.671Z, 35.48
2022-11-27T01:28:08.695Z, 35.50
2022-11-27T01:29:08.669Z, 35.53
2022-11-27T01:30:08.748Z, 35.48
2022-11-27T01:31:08.812Z, 35.45
2022-11-27T01:32:08.730Z, 35.44
2022-11-27T01:33:08.807Z, 35.44
2022-11-27T01:34:08.829Z, 35.36
2022-11-27T01:35:08.781Z, 35.38
2022-11-27T01:36:08.816Z, 35.40
2022-11-27T01:37:08.802Z, 35.40
2022-11-27T01:38:08.805Z, 35.35
2022-11-27T01:39:08.811Z, 35.36
2022-11-27T01:40:08.807Z, 35.33
2022-11-27T01:41:08.900Z, 35.33
2022-11-27T01:42:08.914Z, 35.33
2022-11-27T01:43:08.861Z, 35.31
2022-11-27T01:44:08.863Z, 35.32
2022-11-27T01:45:08.942Z, 35.30
2022-11-27T01:46:09.034Z, 35.29
2022-11-27T01:47:08.929Z, 35.25
2022-11-27T01:48:08.980Z, 35.20
2022-11-27T01:49:08.933Z, 35.18
2022-11-27T01:50:08.945Z, 35.19
2022-11-27T01:51:08.946Z, 35.20
2022-11-27T01:52:08.947Z, 35.16
2022-11-27T01:53:08.961Z, 35.16
2022-11-27T01:54:08.987Z, 35.10
2022-11-27T01:55:09.046Z, 35.12
2022-11-27T01:56:09.040Z, 35.10
2022-11-27T01:57:09.086Z, 35.11
2022-11-27T01:58:09.036Z, 35.14
2022-11-27T01:59:09.052Z, 35.06
2022-11-27T02:00:09.130Z, 35.10
2022-11-27T02:01:09.107Z, 35.08
2022-11-27T02:02:09.157Z, 35.06
2022-11-27T02:03:09.166Z, 35.02
2022-11-27T02:04:09.114Z, 35.02
2022-11-27T02:05:09.108Z, 34.98
2022-11-27T02:06:09.107Z, 34.96
2022-11-27T02:07:09.122Z, 34.96
2022-11-27T02:08:09.218Z, 34.92
2022-11-27T02:09:09.204Z, 34.89
2022-11-27T02:10:09.216Z, 34.89
2022-11-27T02:11:09.218Z, 34.88
2022-11-27T02:12:09.238Z, 34.90
2022-11-27T02:13:09.239Z, 34.87
2022-11-27T02:14:09.228Z, 34.89
2022-11-27T02:15:09.272Z, 34.85
2022-11-27T02:16:12.683Z, 34.85
2022-11-27T02:17:09.254Z, 34.85
2022-11-27T02:18:09.256Z, 34.82
2022-11-27T02:19:09.247Z, 34.79
2022-11-27T02:20:09.251Z, 34.81
2022-11-27T02:21:09.275Z, 34.76
2022-11-27T02:22:09.293Z, 34.76
2022-11-27T02:23:09.319Z, 34.75
2022-11-27T02:24:09.313Z, 34.76
2022-11-27T02:25:09.347Z, 34.79
2022-11-27T02:26:09.346Z, 34.74
2022-11-27T02:27:09.362Z, 34.76
2022-11-27T02:28:09.429Z, 34.73
2022-11-27T02:29:09.462Z, 34.70
2022-11-27T02:30:09.425Z, 34.67
2022-11-27T02:31:09.477Z, 34.65
2022-11-27T02:32:09.498Z, 34.61
2022-11-27T02:33:09.468Z, 34.58
2022-11-27T02:34:09.484Z, 34.60
2022-11-27T02:35:09.464Z, 34.57
2022-11-27T02:36:09.466Z, 34.62
2022-11-27T02:37:09.467Z, 34.61
2022-11-27T02:38:09.465Z, 34.55
2022-11-27T02:39:09.558Z, 34.55
2022-11-27T02:40:09.534Z, 34.54
2022-11-27T02:41:09.524Z, 34.55
2022-11-27T02:42:09.531Z, 34.48
2022-11-27T02:43:09.532Z, 34.50
2022-11-27T02:44:09.533Z, 34.48
2022-11-27T02:45:09.541Z, 34.49
2022-11-27T02:46:09.609Z, 34.47
2022-11-27T02:47:09.573Z, 34.49
2022-11-27T02:48:09.599Z, 34.44
2022-11-27T02:49:09.592Z, 34.48
2022-11-27T02:50:09.609Z, 34.44
2022-11-27T02:51:09.683Z, 34.39
2022-11-27T02:52:09.704Z, 34.40
2022-11-27T02:53:09.707Z, 34.41
2022-11-27T02:54:09.703Z, 34.40
2022-11-27T02:55:09.730Z, 34.39
2022-11-27T02:56:09.707Z, 34.38
2022-11-27T02:57:09.736Z, 34.38
2022-11-27T02:58:09.709Z, 34.34
2022-11-27T02:59:09.790Z, 34.38
2022-11-27T03:00:09.775Z, 34.33
2022-11-27T03:01:09.779Z, 34.31
2022-11-27T03:02:09.831Z, 34.30
2022-11-27T03:03:09.898Z, 34.34
2022-11-27T03:04:09.798Z, 34.33
2022-11-27T03:05:09.798Z, 34.31
2022-11-27T03:06:09.804Z, 34.28
2022-11-27T03:07:09.984Z, 34.25
2022-11-27T03:08:09.847Z, 34.22
2022-11-27T03:09:09.878Z, 34.18
2022-11-27T03:10:09.907Z, 34.15
2022-11-27T03:11:09.917Z, 34.15
2022-11-27T03:12:09.871Z, 34.14
2022-11-27T03:13:09.889Z, 34.13
2022-11-27T03:14:09.892Z, 34.11
2022-11-27T03:15:09.927Z, 34.12
2022-11-27T03:16:10.094Z, 34.11
2022-11-27T03:17:09.983Z, 34.13
2022-11-27T03:18:09.991Z, 34.12
2022-11-27T03:19:09.974Z, 34.13
2022-11-27T03:20:10.042Z, 34.07
2022-11-27T03:21:10.050Z, 34.05
2022-11-27T03:22:10.009Z, 34.07
2022-11-27T03:23:10.123Z, 34.05
2022-11-27T03:24:10.090Z, 34.06
2022-11-27T03:25:10.091Z, 34.08
2022-11-27T03:26:10.083Z, 34.07
2022-11-27T03:27:10.143Z, 34.02
2022-11-27T03:28:10.120Z, 34.01
2022-11-27T03:29:10.120Z, 33.98
2022-11-27T03:30:10.119Z, 33.99
2022-11-27T03:31:10.269Z, 33.94
2022-11-27T03:32:10.155Z, 33.94
2022-11-27T03:33:10.168Z, 33.94
2022-11-27T03:34:10.206Z, 33.96
2022-11-27T03:35:10.249Z, 33.96
2022-11-27T03:36:10.203Z, 33.90
2022-11-27T03:37:10.263Z, 33.88
2022-11-27T03:38:10.253Z, 33.89
2022-11-27T03:39:10.278Z, 33.89
2022-11-27T03:40:10.249Z, 33.88
2022-11-27T03:41:10.331Z, 33.83
2022-11-27T03:42:10.302Z, 33.80
2022-11-27T03:43:10.298Z, 33.80
2022-11-27T03:44:10.303Z, 33.78
2022-11-27T03:45:10.296Z, 33.81
2022-11-27T03:46:10.365Z, 33.81
2022-11-27T03:47:10.412Z, 33.81
2022-11-27T03:48:10.337Z, 33.82
2022-11-27T03:49:10.361Z, 33.82
2022-11-27T03:50:10.424Z, 33.79
2022-11-27T03:51:10.403Z, 33.76
2022-11-27T03:52:10.399Z, 33.76
2022-11-27T03:53:10.398Z, 33.72
2022-11-27T03:54:10.409Z, 33.74
2022-11-27T03:55:10.415Z, 33.77
2022-11-27T03:56:10.578Z, 33.74
2022-11-27T03:57:10.453Z, 33.70
2022-11-27T03:58:10.457Z, 33.71
2022-11-27T03:59:10.465Z, 33.69
2022-11-27T04:00:10.464Z, 33.65
2022-11-27T04:01:10.531Z, 33.62
2022-11-27T04:02:10.603Z, 33.67
2022-11-27T04:03:10.532Z, 33.65
2022-11-27T04:04:10.667Z, 33.64
2022-11-27T04:05:10.603Z, 33.61
2022-11-27T04:06:10.583Z, 33.63
2022-11-27T04:07:10.637Z, 33.63
2022-11-27T04:08:10.571Z, 33.63
2022-11-27T04:09:10.574Z, 33.62
2022-11-27T04:10:10.596Z, 33.61
2022-11-27T04:11:10.619Z, 33.60
2022-11-27T04:12:10.711Z, 33.54
2022-11-27T04:13:10.668Z, 33.47
2022-11-27T04:14:10.669Z, 33.49
2022-11-27T04:15:10.665Z, 33.48
2022-11-27T04:16:10.827Z, 33.49
2022-11-27T04:17:10.762Z, 33.53
2022-11-27T04:18:10.782Z, 33.50
2022-11-27T04:19:10.752Z, 33.50
2022-11-27T04:20:10.751Z, 33.49
2022-11-27T04:21:10.806Z, 33.47
2022-11-27T04:22:10.826Z, 33.47
2022-11-27T04:23:10.798Z, 33.45
2022-11-27T04:24:10.791Z, 33.46
2022-11-27T04:25:10.781Z, 33.47
2022-11-27T04:26:10.843Z, 33.45
2022-11-27T04:27:10.812Z, 33.42
2022-11-27T04:28:10.812Z, 33.40
2022-11-27T04:29:10.826Z, 33.37
2022-11-27T04:30:10.842Z, 33.37
2022-11-27T04:31:10.954Z, 33.42
2022-11-27T04:32:10.868Z, 34.62
2022-11-27T04:33:10.888Z, 35.23
2022-11-27T04:34:10.908Z, 35.31
2022-11-27T04:35:10.923Z, 35.31
2022-11-27T04:36:11.032Z, 35.24
2022-11-27T04:37:10.931Z, 35.18
2022-11-27T04:38:10.975Z, 35.04
2022-11-27T04:39:11.024Z, 34.81
2022-11-27T04:40:11.029Z, 35.15
2022-11-27T04:41:11.012Z, 42.35
2022-11-27T04:42:11.016Z, 48.67
2022-11-27T04:43:11.049Z, 47.10
2022-11-27T04:44:11.061Z, 44.10
2022-11-27T04:45:11.049Z, 42.17
2022-11-27T04:46:11.101Z, 40.33
2022-11-27T04:47:11.060Z, 38.96
2022-11-27T04:48:11.067Z, 37.94
2022-11-27T04:49:11.131Z, 36.91
2022-11-27T04:50:11.087Z, 35.68
2022-11-27T04:51:11.161Z, 34.46
2022-11-27T04:52:11.173Z, 33.61
2022-11-27T04:53:11.173Z, 32.98
2022-11-27T04:54:11.178Z, 32.51
2022-11-27T04:55:11.217Z, 32.18
2022-11-27T04:56:11.205Z, 31.95
2022-11-27T04:57:11.185Z, 31.73
2022-11-27T04:58:11.260Z, 31.56
2022-11-27T04:59:11.218Z, 31.37
2022-11-27T05:00:11.219Z, 31.12
2022-11-27T05:01:11.231Z, 30.66
2022-11-27T05:02:11.214Z, 30.69
2022-11-27T05:03:11.384Z, 36.19
2022-11-27T05:04:11.274Z, 41.31
2022-11-27T05:05:11.306Z, 45.29
2022-11-27T05:06:11.344Z, 48.69
2022-11-27T05:07:11.425Z, 51.14
2022-11-27T05:08:11.327Z, 51.54
2022-11-27T05:09:11.325Z, 51.26
2022-11-27T05:10:11.329Z, 50.70
2022-11-27T05:11:11.326Z, 49.97
2022-11-27T05:12:11.413Z, 49.19
2022-11-27T05:13:11.395Z, 48.46
2022-11-27T05:14:11.390Z, 47.77
2022-11-27T05:15:11.511Z, 47.10
2022-11-27T05:16:11.575Z, 46.42
2022-11-27T05:17:11.389Z, 45.77
2022-11-27T05:18:11.394Z, 45.15
2022-11-27T05:19:11.392Z, 44.45
2022-11-27T05:20:11.394Z, 43.72
2022-11-27T05:21:11.468Z, 43.08
2022-11-27T05:22:11.462Z, 42.47
2022-11-27T05:23:11.458Z, 41.92
2022-11-27T05:24:11.454Z, 41.40
2022-11-27T05:25:11.519Z, 40.91
2022-11-27T05:26:11.467Z, 40.39
2022-11-27T05:27:11.512Z, 39.85
2022-11-27T05:28:11.502Z, 39.37
2022-11-27T05:29:11.570Z, 38.88
2022-11-27T05:30:11.560Z, 38.37
2022-11-27T05:31:11.683Z, 38.07
2022-11-27T05:32:11.560Z, 43.78
2022-11-27T05:33:11.556Z, 50.48
2022-11-27T05:34:11.633Z, 53.06
2022-11-27T05:35:11.642Z, 52.03
2022-11-27T05:36:11.609Z, 50.56
2022-11-27T05:37:15.117Z, 49.58
2022-11-27T05:38:11.690Z, 48.85
2022-11-27T05:39:11.642Z, 48.22
2022-11-27T05:40:11.647Z, 47.66
2022-11-27T05:41:11.649Z, 47.08
2022-11-27T05:42:11.650Z, 46.59
2022-11-27T05:43:11.654Z, 46.11
2022-11-27T05:44:11.738Z, 45.61
2022-11-27T05:45:11.732Z, 45.08
2022-11-27T05:46:11.796Z, 44.63
2022-11-27T05:47:11.765Z, 44.15
2022-11-27T05:48:11.768Z, 43.71
2022-11-27T05:49:11.778Z, 43.30
2022-11-27T05:50:11.757Z, 42.79
2022-11-27T05:51:11.791Z, 42.36
2022-11-27T05:52:11.780Z, 41.93
2022-11-27T05:53:11.802Z, 41.50
2022-11-27T05:54:11.795Z, 41.09
2022-11-27T05:55:11.800Z, 40.67
2022-11-27T05:56:11.816Z, 40.12
2022-11-27T05:57:11.888Z, 39.70
2022-11-27T05:58:11.850Z, 39.29
2022-11-27T05:59:11.856Z, 38.86
2022-11-27T06:00:11.847Z, 38.42
2022-11-27T06:01:11.918Z, 38.04
2022-11-27T06:02:16.450Z, 37.77
2022-11-27T06:03:12.015Z, 43.17
2022-11-27T06:04:11.959Z, 48.70
2022-11-27T06:05:11.944Z, 51.51
2022-11-27T06:06:11.984Z, 54.28
2022-11-27T06:07:12.022Z, 55.16
2022-11-27T06:08:11.971Z, 54.50
2022-11-27T06:09:13.384Z, 53.83
2022-11-27T06:10:11.985Z, 53.05
2022-11-27T06:11:11.988Z, 52.18
2022-11-27T06:12:11.995Z, 51.15
2022-11-27T06:13:12.018Z, 50.07
2022-11-27T06:14:12.042Z, 48.96
2022-11-27T06:15:12.015Z, 47.88
2022-11-27T06:16:12.124Z, 47.30
2022-11-27T06:17:12.028Z, 47.03
2022-11-27T06:18:12.033Z, 46.74
2022-11-27T06:19:12.143Z, 46.41
2022-11-27T06:20:12.027Z, 46.09
2022-11-27T06:21:12.041Z, 45.83
2022-11-27T06:22:12.036Z, 45.59
2022-11-27T06:23:12.049Z, 45.36
2022-11-27T06:24:12.138Z, 45.15
2022-11-27T06:25:12.146Z, 44.94
2022-11-27T06:26:12.103Z, 44.73
2022-11-27T06:27:12.107Z, 44.57
2022-11-27T06:28:12.145Z, 44.36
2022-11-27T06:29:12.117Z, 44.22
2022-11-27T06:30:12.116Z, 44.03
2022-11-27T06:31:17.445Z, 43.84
2022-11-27T06:32:12.281Z, 43.69
2022-11-27T06:33:12.190Z, 43.57
2022-11-27T06:34:12.177Z, 43.39
2022-11-27T06:35:12.177Z, 43.26
2022-11-27T06:36:12.197Z, 43.14
2022-11-27T06:37:13.469Z, 42.96
2022-11-27T06:38:12.186Z, 42.80
2022-11-27T06:39:12.208Z, 42.69
2022-11-27T06:40:12.208Z, 42.56
2022-11-27T06:41:12.299Z, 42.40
2022-11-27T06:42:12.317Z, 42.25
2022-11-27T06:43:12.273Z, 42.12
2022-11-27T06:44:12.284Z, 42.05
2022-11-27T06:45:12.281Z, 41.93
2022-11-27T06:46:12.438Z, 41.79
2022-11-27T06:47:12.334Z, 41.64
2022-11-27T06:48:12.316Z, 41.53
2022-11-27T06:49:12.334Z, 41.44
2022-11-27T06:50:12.342Z, 41.33
2022-11-27T06:51:12.420Z, 41.16
2022-11-27T06:52:12.428Z, 41.01
2022-11-27T06:53:12.431Z, 40.94
2022-11-27T06:54:12.459Z, 40.86
2022-11-27T06:55:12.459Z, 40.76
2022-11-27T06:56:12.433Z, 40.64
2022-11-27T06:57:12.469Z, 40.50
2022-11-27T06:58:12.471Z, 40.39
2022-11-27T06:59:12.458Z, 40.30
2022-11-27T07:00:12.459Z, 40.21
2022-11-27T07:01:12.543Z, 40.08
2022-11-27T07:02:12.650Z, 40.00
2022-11-27T07:03:12.532Z, 39.94
2022-11-27T07:04:12.532Z, 39.81
2022-11-27T07:05:12.604Z, 39.72
2022-11-27T07:06:12.595Z, 39.62
2022-11-27T07:07:12.659Z, 39.53
2022-11-27T07:08:12.567Z, 39.49
2022-11-27T07:09:12.632Z, 39.40
2022-11-27T07:10:12.630Z, 39.35
2022-11-27T07:11:12.597Z, 39.25
2022-11-27T07:12:12.602Z, 39.14
2022-11-27T07:13:12.610Z, 39.10
2022-11-27T07:14:12.687Z, 39.02
2022-11-27T07:15:12.670Z, 38.93
2022-11-27T07:16:12.765Z, 38.87
2022-11-27T07:17:12.730Z, 38.74
2022-11-27T07:18:12.697Z, 38.63
2022-11-27T07:19:12.698Z, 38.50
2022-11-27T07:20:12.729Z, 38.70
2022-11-27T07:21:12.761Z, 41.86
2022-11-27T07:22:12.718Z, 45.62
2022-11-27T07:23:12.770Z, 49.87
2022-11-27T07:24:12.737Z, 54.15
2022-11-27T07:25:12.736Z, 58.23
2022-11-27T07:26:12.736Z, 66.31
2022-11-27T07:27:12.774Z, 61.50
2022-11-27T07:28:17.403Z, 51.91
2022-11-27T07:29:12.789Z, 53.02
2022-11-27T07:30:12.791Z, 54.13
2022-11-27T07:31:12.850Z, 55.79
2022-11-27T07:32:12.816Z, 58.78
2022-11-27T07:33:12.834Z, 65.96
2022-11-27T07:34:17.080Z, 59.90
2022-11-27T07:35:12.868Z, 52.70
2022-11-27T07:36:12.869Z, 53.87
2022-11-27T07:37:12.956Z, 55.34
2022-11-27T07:38:12.948Z, 57.45
2022-11-27T07:39:12.977Z, 59.19
2022-11-27T07:40:14.878Z, 60.10
2022-11-27T07:41:12.998Z, 60.76
2022-11-27T07:42:36.926Z, 61.21
2022-11-27T07:43:12.988Z, 61.46
2022-11-27T07:44:12.991Z, 61.63
2022-11-27T07:45:12.982Z, 61.69
2022-11-27T07:46:13.088Z, 61.77
2022-11-27T07:47:13.066Z, 61.74
2022-11-27T07:48:13.074Z, 61.71
2022-11-27T07:49:13.055Z, 61.68
2022-11-27T07:50:13.053Z, 61.55
2022-11-27T07:51:13.066Z, 61.45
2022-11-27T07:52:13.058Z, 61.27
2022-11-27T07:53:13.063Z, 61.23
2022-11-27T07:54:13.082Z, 61.04
2022-11-27T07:55:13.189Z, 60.89
2022-11-27T07:56:13.162Z, 60.74
2022-11-27T07:57:13.160Z, 60.66
2022-11-27T07:58:13.221Z, 60.43
2022-11-27T07:59:13.224Z, 60.13
2022-11-27T08:00:13.200Z, 60.01
2022-11-27T08:01:13.330Z, 59.82
2022-11-27T08:02:13.208Z, 59.67
2022-11-27T08:03:13.264Z, 59.48
2022-11-27T08:04:13.322Z, 59.44
2022-11-27T08:05:13.516Z, 59.26
2022-11-27T08:06:13.275Z, 59.02
2022-11-27T08:07:13.270Z, 58.89
2022-11-27T08:08:13.319Z, 58.79
2022-11-27T08:09:13.281Z, 58.62
2022-11-27T08:10:13.307Z, 58.50
2022-11-27T08:11:13.295Z, 58.32
2022-11-27T08:12:13.309Z, 58.19
2022-11-27T08:13:13.355Z, 58.02
2022-11-27T08:14:13.356Z, 58.01
2022-11-27T08:15:13.375Z, 57.71
2022-11-27T08:16:13.441Z, 57.64
2022-11-27T08:17:13.358Z, 57.49
2022-11-27T08:18:13.452Z, 57.44
2022-11-27T08:19:13.430Z, 57.27
2022-11-27T08:20:13.434Z, 57.13
2022-11-27T08:21:13.474Z, 56.99
2022-11-27T08:22:13.447Z, 56.92
2022-11-27T08:23:13.542Z, 56.69
2022-11-27T08:24:13.524Z, 56.58
2022-11-27T08:25:13.529Z, 56.55
2022-11-27T08:26:13.525Z, 56.35
2022-11-27T08:27:13.519Z, 56.22
2022-11-27T08:28:13.517Z, 56.15
2022-11-27T08:29:13.527Z, 56.03
2022-11-27T08:30:13.598Z, 55.88
2022-11-27T08:31:13.683Z, 55.64
2022-11-27T08:32:13.569Z, 55.58
2022-11-27T08:33:13.574Z, 55.52
2022-11-27T08:34:13.635Z, 55.40
2022-11-27T08:35:13.601Z, 55.29
2022-11-27T08:36:17.829Z, 55.17
2022-11-27T08:37:13.595Z, 55.05
2022-11-27T08:38:13.603Z, 54.81
2022-11-27T08:39:13.598Z, 54.67
2022-11-27T08:40:13.609Z, 54.57
2022-11-27T08:41:13.637Z, 55.53
2022-11-27T08:42:13.653Z, 58.00
2022-11-27T08:43:13.732Z, 61.52
2022-11-27T08:44:13.718Z, 68.23
2022-11-27T08:45:13.746Z, 53.07
2022-11-27T08:46:13.778Z, 53.12
2022-11-27T08:47:13.709Z, 54.34
2022-11-27T08:48:13.742Z, 56.19
2022-11-27T08:49:13.801Z, 58.49
2022-11-27T08:50:13.792Z, 61.49
2022-11-27T08:51:13.784Z, 65.93
2022-11-27T08:52:13.791Z, 52.99
2022-11-27T08:53:13.848Z, 53.68
2022-11-27T08:54:13.863Z, 54.30
2022-11-27T08:55:13.847Z, 54.77
2022-11-27T08:56:13.872Z, 55.09
2022-11-27T08:57:13.906Z, 55.14
2022-11-27T08:58:13.886Z, 55.12
2022-11-27T08:59:13.911Z, 54.93
2022-11-27T09:00:13.908Z, 54.82
2022-11-27T09:01:14.007Z, 54.60
2022-11-27T09:02:13.912Z, 54.47
2022-11-27T09:03:13.910Z, 54.29
2022-11-27T09:04:13.977Z, 54.09
2022-11-27T09:05:13.973Z, 53.78
2022-11-27T09:06:13.943Z, 53.62
2022-11-27T09:07:13.952Z, 53.47
2022-11-27T09:08:13.931Z, 53.26
2022-11-27T09:09:13.948Z, 53.01
2022-11-27T09:10:13.973Z, 52.74
2022-11-27T09:11:13.984Z, 52.52
2022-11-27T09:12:13.988Z, 52.37
2022-11-27T09:13:14.061Z, 52.11
2022-11-27T09:14:14.071Z, 51.89
2022-11-27T09:15:14.051Z, 51.68
2022-11-27T09:16:14.117Z, 51.48
2022-11-27T09:17:14.073Z, 51.31
2022-11-27T09:18:14.075Z, 51.03
2022-11-27T09:19:14.090Z, 50.80
2022-11-27T09:20:14.078Z, 50.67
2022-11-27T09:21:14.094Z, 50.42
2022-11-27T09:22:14.173Z, 50.24
2022-11-27T09:23:14.636Z, 50.06
2022-11-27T09:24:14.184Z, 49.84
2022-11-27T09:25:14.160Z, 49.62
2022-11-27T09:26:14.154Z, 49.43
2022-11-27T09:27:14.224Z, 49.33
2022-11-27T09:28:14.203Z, 49.17
2022-11-27T09:29:14.213Z, 48.99
2022-11-27T09:30:14.227Z, 48.85
2022-11-27T09:31:14.299Z, 48.62
2022-11-27T09:32:14.348Z, 48.46
2022-11-27T09:33:14.261Z, 48.37
2022-11-27T09:34:14.278Z, 48.22
2022-11-27T09:35:14.321Z, 48.02
2022-11-27T09:36:14.324Z, 47.88
2022-11-27T09:37:14.319Z, 47.79
2022-11-27T09:38:14.376Z, 47.64
2022-11-27T09:39:14.345Z, 47.44
2022-11-27T09:40:14.344Z, 47.27
2022-11-27T09:41:14.345Z, 47.06
2022-11-27T09:42:14.416Z, 46.95
2022-11-27T09:43:14.377Z, 46.82
2022-11-27T09:44:14.388Z, 46.66
2022-11-27T09:45:14.402Z, 46.59
2022-11-27T09:46:14.455Z, 46.49
2022-11-27T09:47:14.419Z, 46.39
2022-11-27T09:48:14.409Z, 46.24
2022-11-27T09:49:14.435Z, 46.15
2022-11-27T09:50:14.499Z, 45.97
2022-11-27T09:51:14.497Z, 45.91
2022-11-27T09:52:14.481Z, 45.81
2022-11-27T09:53:14.486Z, 45.71
2022-11-27T09:54:14.575Z, 45.66
2022-11-27T09:55:14.553Z, 45.53
2022-11-27T09:56:14.597Z, 45.41
2022-11-27T09:57:14.573Z, 45.29
2022-11-27T09:58:14.608Z, 45.23
2022-11-27T09:59:14.593Z, 45.11
2022-11-27T10:00:14.584Z, 45.05
2022-11-27T10:01:14.739Z, 44.95
2022-11-27T10:02:14.747Z, 44.81
2022-11-27T10:03:14.733Z, 44.69
2022-11-27T10:04:14.655Z, 44.62
2022-11-27T10:05:15.136Z, 44.59
2022-11-27T10:06:14.656Z, 44.47
2022-11-27T10:07:14.725Z, 44.41
2022-11-27T10:08:14.737Z, 44.28
2022-11-27T10:09:14.744Z, 44.22
2022-11-27T10:10:14.746Z, 44.14
2022-11-27T10:11:14.798Z, 44.09
2022-11-27T10:12:14.794Z, 43.99
2022-11-27T10:13:14.825Z, 43.93
2022-11-27T10:14:14.780Z, 43.83
2022-11-27T10:15:14.787Z, 43.75
2022-11-27T10:16:14.951Z, 43.74
2022-11-27T10:17:14.868Z, 43.63
2022-11-27T10:18:14.834Z, 43.61
2022-11-27T10:19:14.887Z, 43.52
2022-11-27T10:20:14.876Z, 43.44
2022-11-27T10:21:14.888Z, 43.41
2022-11-27T10:22:19.506Z, 43.32
2022-11-27T10:23:14.876Z, 43.33
2022-11-27T10:24:14.878Z, 43.21
2022-11-27T10:25:14.892Z, 43.15
2022-11-27T10:26:14.912Z, 43.01
2022-11-27T10:27:14.909Z, 42.93
2022-11-27T10:28:14.962Z, 42.92
2022-11-27T10:29:14.936Z, 42.86
2022-11-27T10:30:15.037Z, 42.78
2022-11-27T10:31:15.118Z, 42.80
2022-11-27T10:32:39.613Z, 42.69
2022-11-27T10:33:15.021Z, 42.62
2022-11-27T10:34:15.019Z, 42.53
2022-11-27T10:35:15.023Z, 42.54
2022-11-27T10:36:15.029Z, 42.39
2022-11-27T10:37:15.147Z, 42.38
2022-11-27T10:38:15.046Z, 42.35
2022-11-27T10:39:15.049Z, 42.27
2022-11-27T10:40:15.069Z, 42.27
2022-11-27T10:41:47.650Z, 42.24
2022-11-27T10:42:15.098Z, 42.20
2022-11-27T10:43:15.121Z, 42.09
2022-11-27T10:44:15.132Z, 42.05
2022-11-27T10:45:15.120Z, 42.01
2022-11-27T10:46:15.286Z, 41.98
2022-11-27T10:47:15.182Z, 41.91
2022-11-27T10:48:15.295Z, 41.86
2022-11-27T10:49:15.234Z, 41.80
2022-11-27T10:50:15.238Z, 41.72
2022-11-27T10:51:15.221Z, 41.64
2022-11-27T10:52:15.265Z, 41.58
2022-11-27T10:53:15.313Z, 41.66
2022-11-27T10:54:15.298Z, 41.65
2022-11-27T10:55:15.273Z, 41.56
2022-11-27T10:56:15.281Z, 41.48
2022-11-27T10:57:15.272Z, 41.44
2022-11-27T10:58:15.368Z, 41.39
2022-11-27T10:59:15.352Z, 41.38
2022-11-27T11:00:15.335Z, 41.26
2022-11-27T11:01:15.554Z, 41.76
2022-11-27T11:02:15.465Z, 42.97
2022-11-27T11:03:15.405Z, 43.22
2022-11-27T11:04:36.460Z, 43.04
2022-11-27T11:05:34.582Z, 42.29
2022-11-27T11:06:21.355Z, 41.23
2022-11-27T11:07:15.447Z, 39.52
2022-11-27T11:08:15.446Z, 37.46
2022-11-27T11:09:15.434Z, 35.95
2022-11-27T11:10:15.430Z, 34.92
2022-11-27T11:11:15.435Z, 37.00
2022-11-27T11:12:15.446Z, 42.21
2022-11-27T11:13:15.433Z, 46.92
2022-11-27T11:14:15.498Z, 47.78
2022-11-27T11:15:15.467Z, 45.66
2022-11-27T11:16:17.472Z, 45.82
2022-11-27T11:17:15.597Z, 45.74
2022-11-27T11:18:15.513Z, 45.20
2022-11-27T11:19:15.521Z, 44.46
2022-11-27T11:20:15.538Z, 44.01
2022-11-27T11:21:15.561Z, 43.70
2022-11-27T11:22:15.565Z, 43.46
2022-11-27T11:23:15.579Z, 43.24
2022-11-27T11:24:15.575Z, 43.04
2022-11-27T11:25:15.666Z, 42.84
2022-11-27T11:26:15.669Z, 42.61
2022-11-27T11:27:15.655Z, 42.41
2022-11-27T11:28:15.644Z, 42.23
2022-11-27T11:29:15.660Z, 42.03
2022-11-27T11:30:15.637Z, 41.86
2022-11-27T11:31:15.737Z, 41.71
2022-11-27T11:32:15.718Z, 41.57
2022-11-27T11:33:15.759Z, 41.43
2022-11-27T11:34:15.734Z, 41.23
2022-11-27T11:35:15.719Z, 41.10
2022-11-27T11:36:15.716Z, 40.95
2022-11-27T11:37:15.735Z, 40.79
2022-11-27T11:38:15.741Z, 40.65
2022-11-27T11:39:15.764Z, 40.53
2022-11-27T11:40:16.586Z, 40.43
2022-11-27T11:41:15.786Z, 40.28
2022-11-27T11:42:15.853Z, 40.15
2022-11-27T11:43:15.794Z, 40.04
2022-11-27T11:44:15.899Z, 39.93
2022-11-27T11:45:15.871Z, 39.77
2022-11-27T11:46:15.962Z, 39.68
2022-11-27T11:47:15.897Z, 39.55
2022-11-27T11:48:15.864Z, 39.44
2022-11-27T11:49:15.878Z, 39.34
2022-11-27T11:50:15.982Z, 39.24
2022-11-27T11:51:15.975Z, 39.13
2022-11-27T11:52:15.934Z, 39.01
2022-11-27T11:53:15.986Z, 38.96
2022-11-27T11:54:16.005Z, 38.86
2022-11-27T11:55:15.950Z, 38.77
2022-11-27T11:56:16.016Z, 38.69
2022-11-27T11:57:15.986Z, 38.60
2022-11-27T11:58:16.027Z, 38.51
2022-11-27T11:59:16.008Z, 38.42
2022-11-27T12:00:16.044Z, 38.31
2022-11-27T12:01:26.484Z, 38.23
2022-11-27T12:02:16.089Z, 38.13
2022-11-27T12:03:16.056Z, 38.09
2022-11-27T12:04:16.091Z, 38.01
2022-11-27T12:05:16.088Z, 37.95
2022-11-27T12:06:16.137Z, 37.88
2022-11-27T12:07:16.174Z, 37.77
2022-11-27T12:08:16.157Z, 37.71
2022-11-27T12:09:16.172Z, 37.63
2022-11-27T12:10:16.217Z, 37.53
2022-11-27T12:11:16.156Z, 37.41
2022-11-27T12:12:16.153Z, 37.36
2022-11-27T12:13:16.157Z, 37.30
2022-11-27T12:14:16.259Z, 37.22
2022-11-27T12:15:16.228Z, 37.15
2022-11-27T12:16:16.362Z, 37.10
2022-11-27T12:17:16.227Z, 37.04
2022-11-27T12:18:16.217Z, 36.94
2022-11-27T12:19:16.226Z, 36.90
2022-11-27T12:20:16.238Z, 36.82
2022-11-27T12:21:16.233Z, 36.78
2022-11-27T12:22:16.238Z, 36.71
2022-11-27T12:23:16.245Z, 36.63
2022-11-27T12:24:16.259Z, 36.57
2022-11-27T12:25:16.276Z, 36.55
2022-11-27T12:26:16.289Z, 36.47
2022-11-27T12:27:16.293Z, 36.42
2022-11-27T12:28:16.317Z, 36.37